Time;durP1;ratioP1;P1;durP2;ratioP2;P2;SDS_P1;SDS_P2;PMS_P1;PMS_P2;Temp;Humidity;BMP_temperature;BMP_pressure;BME280_temperature;BME280_humidity;BME280_pressure;Samples;Min_cycle;Max_cycle;Signal;HPM_P1;HPM_P2
2021/12/09 05:43:44;;;;;;;53.02;30.25;;;;;;;6.75;100.00;99548.94;1722569;82;21559;-35
2021/12/09 05:46:11;;;;;;;50.33;29.20;;;;;;;6.73;100.00;99551.98;1722942;82;21056;-36
2021/12/09 05:48:41;;;;;;;48.00;30.45;;;;;;;6.72;100.00;99557.14;1719154;82;21028;-36
2021/12/09 05:51:07;;;;;;;54.95;31.70;;;;;;;6.71;100.00;99560.62;1723953;81;21044;-40
2021/12/09 05:53:35;;;;;;;46.13;29.82;;;;;;;6.71;100.00;99569.28;1724477;81;21079;-44
2021/12/09 05:56:04;;;;;;;48.63;30.17;;;;;;;6.70;100.00;99568.84;1715166;81;21100;-36
2021/12/09 05:58:31;;;;;;;49.35;29.77;;;;;;;6.69;100.00;99569.72;1716975;82;21002;-36
2021/12/09 06:00:58;;;;;;;48.85;29.07;;;;;;;6.68;100.00;99573.19;1723820;82;21038;-44
2021/12/09 06:03:25;;;;;;;50.65;29.30;;;;;;;6.69;100.00;99579.25;1720159;81;21015;-44
2021/12/09 06:05:52;;;;;;;39.15;26.10;;;;;;;6.68;100.00;99572.31;1713978;83;21161;-43
2021/12/09 06:08:21;;;;;;;45.78;28.38;;;;;;;6.66;100.00;99577.48;1717324;82;21391;-44
2021/12/09 06:10:48;;;;;;;42.13;26.80;;;;;;;6.63;100.00;99581.39;1722375;82;21095;-44
2021/12/09 06:13:16;;;;;;;48.95;28.15;;;;;;;6.61;100.00;99586.59;1717400;81;21034;-44
2021/12/09 06:15:43;;;;;;;45.30;27.15;;;;;;;6.57;100.00;99590.03;1712209;81;21116;-38
2021/12/09 06:18:12;;;;;;;43.80;26.65;;;;;;;6.55;100.00;99594.36;1722325;81;21017;-37
2021/12/09 06:20:39;;;;;;;52.50;31.52;;;;;;;6.53;100.00;99588.70;1723454;82;21605;-37
2021/12/09 06:23:06;;;;;;;43.60;26.12;;;;;;;6.52;100.00;99591.73;1713810;82;21431;-45
2021/12/09 06:25:57;;;;;;;44.70;27.75;;;;;;;6.51;100.00;99589.13;1724862;82;21412;-38
2021/12/09 06:32:46;;;;;;;41.90;25.17;;;;;;;6.48;100.00;99595.16;1719809;81;22018;-43
2021/12/09 06:44:03;;;;;;;56.25;30.80;;;;;;;6.42;100.00;99605.95;1724587;81;21014;-37
2021/12/09 06:46:38;;;;;;;47.15;26.37;;;;;;;6.40;100.00;99612.45;1733577;82;21254;-36
2021/12/09 06:49:10;;;;;;;48.60;28.15;;;;;;;6.41;100.00;99612.89;1728277;81;21008;-44
2021/12/09 06:51:55;;;;;;;47.75;27.20;;;;;;;6.40;100.00;99615.92;1710030;82;21041;-35
2021/12/09 06:54:22;;;;;;;42.60;25.00;;;;;;;6.40;100.00;99619.81;1717296;82;21002;-36
2021/12/09 06:56:48;;;;;;;44.08;24.80;;;;;;;6.38;100.00;99626.74;1659340;84;21064;-36
2021/12/09 06:59:15;;;;;;;47.45;27.93;;;;;;;6.37;100.00;99622.81;1657824;85;21414;-37
2021/12/09 07:01:42;;;;;;;45.63;26.42;;;;;;;6.37;100.00;99631.47;1661221;85;21439;-37
2021/12/09 07:04:10;;;;;;;45.45;28.17;;;;;;;6.37;100.00;99637.10;1655483;85;21129;-44
2021/12/09 07:06:38;;;;;;;46.08;26.17;;;;;;;6.36;100.00;99636.67;1721872;81;21486;-45
2021/12/09 07:09:05;;;;;;;43.73;25.43;;;;;;;6.36;100.00;99640.56;1681520;82;21049;-37
2021/12/09 07:11:34;;;;;;;43.38;25.17;;;;;;;6.36;100.00;99644.03;1720008;82;21078;-37
2021/12/09 07:14:01;;;;;;;43.40;25.77;;;;;;;6.36;100.00;99642.73;1723570;81;21053;-37
2021/12/09 07:16:34;;;;;;;44.38;25.43;;;;;;;6.36;100.00;99646.62;1715898;81;21117;-37
2021/12/09 07:19:51;;;;;;;45.50;25.32;;;;;;;6.37;100.00;99647.50;1716317;81;21324;-44
2021/12/09 07:24:10;;;;;;;41.50;25.08;;;;;;;6.37;100.00;99645.77;1712959;82;21174;-44
2021/12/09 07:27:19;;;;;;;50.73;24.70;;;;;;;6.40;100.00;99652.73;1679904;83;21631;-44
2021/12/09 07:30:58;;;;;;;43.78;24.10;;;;;;;6.45;100.00;99652.77;1650649;84;21117;-45
2021/12/09 07:33:56;;;;;;;57.03;27.50;;;;;;;6.44;100.00;99654.50;1720092;81;21630;-44
2021/12/09 07:45:07;;;;;;;40.67;23.83;;;;;;;6.45;100.00;99673.13;1730330;81;21449;-39
2021/12/09 07:47:52;;;;;;;41.45;24.95;;;;;;;6.47;100.00;99668.79;1720511;82;20993;-45
2021/12/09 07:50:23;;;;;;;41.23;25.40;;;;;;;6.55;100.00;99667.53;1717045;81;21519;-39
2021/12/09 07:52:51;;;;;;;45.67;26.20;;;;;;;6.58;100.00;99675.36;1716654;82;21501;-45
2021/12/09 07:55:20;;;;;;;38.70;24.72;;;;;;;6.63;100.00;99673.66;1718816;82;21072;-38
2021/12/09 07:57:50;;;;;;;40.60;25.55;;;;;;;6.67;100.00;99678.03;1719386;82;20993;-45
2021/12/09 08:00:21;;;;;;;41.77;26.48;;;;;;;6.72;100.00;99680.20;1731196;82;21602;-46
2021/12/09 08:02:49;;;;;;;41.15;23.87;;;;;;;6.78;100.00;99680.23;1715357;82;21594;-37
2021/12/09 08:05:16;;;;;;;42.40;25.10;;;;;;;6.84;100.00;99680.30;1721600;82;21069;-45
2021/12/09 08:07:44;;;;;;;42.38;24.95;;;;;;;6.88;100.00;99689.83;1727803;82;21354;-38
2021/12/09 08:10:43;;;;;;;43.95;26.37;;;;;;;6.91;100.00;99691.16;1719932;82;21036;-46
2021/12/09 08:13:16;;;;;;;73.83;30.37;;;;;;;6.93;100.00;99691.16;1722160;82;21083;-44
2021/12/09 08:16:37;;;;;;;44.00;26.48;;;;;;;6.93;100.00;99698.53;1700349;82;21629;-45
2021/12/09 08:19:46;;;;;;;44.63;26.30;;;;;;;6.93;100.00;99703.73;1719975;81;21147;-37
2021/12/09 08:27:36;;;;;;;60.17;30.77;;;;;;;6.96;100.00;99700.30;1724311;81;21118;-45
2021/12/09 08:31:09;;;;;;;45.30;24.50;;;;;;;6.93;100.00;99704.16;1734780;81;21615;-45
2021/12/09 08:34:37;;;;;;;40.83;24.15;;;;;;;6.90;100.00;99707.63;1729574;82;21017;-45
2021/12/09 08:40:56;;;;;;;40.98;23.35;;;;;;;6.90;100.00;99707.63;1664355;85;21148;-37
2021/12/09 08:43:23;;;;;;;33.50;21.50;;;;;;;6.93;100.00;99702.43;1661988;85;21377;-39
2021/12/09 08:45:53;;;;;;;32.80;21.33;;;;;;;6.97;100.00;99708.97;1655398;85;21817;-40
2021/12/09 08:48:21;;;;;;;32.42;22.20;;;;;;;6.97;100.00;99705.06;1655107;85;21632;-46
2021/12/09 08:50:48;;;;;;;35.75;22.77;;;;;;;6.97;100.00;99708.97;1668997;85;21029;-38
2021/12/09 08:53:17;;;;;;;28.47;21.95;;;;;;;6.97;100.00;99710.27;1715041;82;21018;-39
2021/12/09 08:55:44;;;;;;;40.33;23.98;;;;;;;6.98;100.00;99710.27;1719360;82;21050;-46
2021/12/09 08:58:15;;;;;;;35.60;22.87;;;;;;;7.04;100.00;99715.50;1712650;81;21087;-45
2021/12/09 09:00:44;;;;;;;33.15;23.02;;;;;;;7.09;100.00;99707.72;1739186;82;21654;-45
2021/12/09 09:03:11;;;;;;;34.03;22.82;;;;;;;7.14;100.00;99706.02;1703861;82;21031;-45
2021/12/09 09:05:39;;;;;;;30.35;20.48;;;;;;;7.20;100.00;99709.94;1716117;82;21065;-38
2021/12/09 09:08:07;;;;;;;37.38;24.20;;;;;;;7.25;100.00;99708.23;1719328;81;20997;-38
2021/12/09 09:10:37;;;;;;;31.25;21.60;;;;;;;7.28;100.00;99708.66;1714432;81;21148;-45
2021/12/09 09:13:04;;;;;;;33.02;22.85;;;;;;;7.28;100.00;99709.96;1714422;82;21008;-38
2021/12/09 09:15:31;;;;;;;33.60;21.55;;;;;;;7.26;100.00;99706.06;1717163;82;21033;-45
2021/12/09 09:18:02;;;;;;;29.32;21.85;;;;;;;7.28;100.00;99708.66;1716383;82;20989;-41
2021/12/09 09:20:39;;;;;;;32.73;23.52;;;;;;;7.34;100.00;99708.69;1724302;82;21158;-45
2021/12/09 09:23:25;;;;;;;31.68;20.20;;;;;;;7.38;100.00;99700.03;1725388;82;20981;-45
2021/12/09 09:26:28;;;;;;;31.03;20.57;;;;;;;7.42;100.00;99701.77;1727999;81;21084;-45
2021/12/09 09:29:25;;;;;;;31.00;20.57;;;;;;;7.42;100.00;99703.96;1737210;82;21072;-38
2021/12/09 09:32:49;;;;;;;27.73;18.55;;;;;;;7.41;100.00;99712.61;1725449;82;21127;-45
2021/12/09 09:35:39;;;;;;;36.70;21.80;;;;;;;7.43;100.00;99711.33;1729144;82;21075;-44
2021/12/09 09:38:18;;;;;;;27.70;18.60;;;;;;;7.37;100.00;99720.42;1726280;82;21038;-45
2021/12/09 09:41:02;;;;;;;24.35;18.10;;;;;;;7.34;100.00;99727.77;1729507;82;21523;-38
2021/12/09 09:43:27;;;;;;;28.57;19.07;;;;;;;7.33;100.00;99727.34;1721345;81;21375;-38
2021/12/09 09:46:16;;;;;;;27.55;18.05;;;;;;;7.33;100.00;99721.27;1721863;81;21059;-37
2021/12/09 09:49:23;;;;;;;28.52;17.77;;;;;;;7.31;100.00;99729.08;1726770;81;21053;-44
2021/12/09 09:52:08;;;;;;;23.62;16.70;;;;;;;7.30;100.00;99726.01;1721405;81;21068;-44
2021/12/09 09:54:37;;;;;;;25.45;17.82;;;;;;;7.34;100.00;99730.80;1726184;81;21593;-44
2021/12/09 09:57:06;;;;;;;25.55;15.90;;;;;;;7.32;100.00;99729.94;1722390;81;21036;-44
2021/12/09 09:59:33;;;;;;;26.75;17.77;;;;;;;7.30;100.00;99729.91;1724578;82;21419;-45
2021/12/09 10:02:01;;;;;;;25.25;17.23;;;;;;;7.29;100.00;99739.02;1724342;81;20977;-38
2021/12/09 10:04:43;;;;;;;28.20;18.12;;;;;;;7.26;100.00;99736.42;1724768;81;20994;-46
2021/12/09 10:07:05;;;;;;;23.57;17.37;;;;;;;7.24;100.00;99734.22;1724215;82;21010;-39
2021/12/09 10:09:35;;;;;;;27.00;17.60;;;;;;;7.22;100.00;99729.02;1724807;82;21664;-38
2021/12/09 10:12:03;;;;;;;25.08;17.48;;;;;;;7.21;100.00;99731.19;1733301;82;21070;-37
2021/12/09 10:14:32;;;;;;;22.55;17.42;;;;;;;7.22;100.00;99729.02;1726959;82;21587;-38
2021/12/09 10:17:09;;;;;;;25.90;18.20;;;;;;;7.24;100.00;99732.92;1725814;81;20935;-38
2021/12/09 10:19:50;;;;;;;27.90;19.27;;;;;;;7.27;100.00;99727.31;1727322;82;21038;-45
2021/12/09 10:22:31;;;;;;;23.98;16.55;;;;;;;7.32;100.00;99733.41;1734115;81;21038;-37
2021/12/09 10:25:19;;;;;;;26.00;17.70;;;;;;;7.37;100.00;99736.91;1732307;81;21117;-38
2021/12/09 10:27:59;;;;;;;24.40;16.70;;;;;;;7.43;100.00;99733.45;1723327;81;21016;-40
2021/12/09 10:31:20;;;;;;;25.02;16.23;;;;;;;7.45;100.00;99733.02;1683137;83;22343;-46
2021/12/09 10:38:07;;;;;;;21.77;16.10;;;;;;;7.42;100.00;99732.59;1805631;78;26034;-38
2021/12/09 10:45:03;;;;;;;24.70;16.12;;;;;;;7.39;100.00;99747.31;1775883;79;21068;-39
2021/12/09 10:47:57;;;;;;;20.65;15.28;;;;;;;7.39;100.00;99748.61;1779416;79;20953;-38
2021/12/09 10:50:39;;;;;;;25.12;15.40;;;;;;;7.35;100.00;99746.41;1777676;79;21075;-45
2021/12/09 10:55:58;;;;;;;21.45;15.68;;;;;;;7.36;100.00;99745.58;1783667;79;21055;-39
2021/12/09 10:58:31;;;;;;;24.55;16.73;;;;;;;7.39;100.00;99753.38;1766909;79;20947;-46
2021/12/09 11:01:05;;;;;;;21.15;15.25;;;;;;;7.43;100.00;99759.48;1773541;78;21662;-46
2021/12/09 11:03:40;;;;;;;21.75;14.73;;;;;;;7.46;100.00;99753.84;1772014;80;21646;-45
2021/12/09 11:06:13;;;;;;;20.85;14.68;;;;;;;7.47;100.00;99758.17;1770382;79;21056;-46
2021/12/09 11:08:55;;;;;;;21.90;14.68;;;;;;;7.45;100.00;99761.22;1780425;79;21418;-46
2021/12/09 11:11:34;;;;;;;22.67;15.25;;;;;;;7.43;100.00;99762.09;1784278;78;21512;-45
2021/12/09 11:14:13;;;;;;;27.67;14.50;;;;;;;7.41;100.00;99767.27;1765985;80;21276;-44
2021/12/09 11:16:51;;;;;;;20.37;14.68;;;;;;;7.41;100.00;99769.00;1778233;79;21104;-38
2021/12/09 11:19:48;;;;;;;22.90;15.10;;;;;;;7.38;100.00;99780.28;1775260;79;21333;-46
2021/12/09 11:22:50;;;;;;;22.55;14.68;;;;;;;7.37;100.00;99781.58;1761655;79;21731;-44
2021/12/09 11:26:30;;;;;;;19.20;13.72;;;;;;;7.39;100.00;99785.05;1778335;79;21583;-44
2021/12/09 11:29:46;;;;;;;20.80;13.22;;;;;;;7.38;100.00;99778.98;1780663;79;21476;-38
2021/12/09 11:32:57;;;;;;;20.55;14.07;;;;;;;7.41;100.00;99776.80;1780257;79;21017;-36
2021/12/09 11:35:42;;;;;;;19.20;13.15;;;;;;;7.42;100.00;99778.14;1776965;79;21021;-43
2021/12/09 11:38:43;;;;;;;19.15;13.35;;;;;;;7.43;100.00;99783.77;1778073;79;20997;-40
2021/12/09 11:41:29;;;;;;;20.37;13.20;;;;;;;7.45;100.00;99788.55;1775848;79;21135;-40
2021/12/09 11:43:56;;;;;;;15.45;12.25;;;;;;;7.47;100.00;99788.55;1777861;79;21421;-39
2021/12/09 11:46:29;;;;;;;16.02;12.43;;;;;;;7.46;100.00;99785.51;1753757;79;21033;-38
2021/12/09 11:49:44;;;;;;;15.72;13.03;;;;;;;7.45;100.00;99788.98;1770795;79;21465;-38
2021/12/09 11:52:36;;;;;;;18.20;12.55;;;;;;;7.42;100.00;99791.55;1758652;79;21004;-37
2021/12/09 11:55:12;;;;;;;17.27;12.28;;;;;;;7.38;100.00;99787.22;1771580;79;21517;-39
2021/12/09 11:57:56;;;;;;;15.58;12.05;;;;;;;7.36;100.00;99786.32;1775832;79;20962;-37
2021/12/09 12:07:53;;;;;;;16.42;12.75;;;;;;;7.33;100.00;99792.39;1770856;79;21004;-44
2021/12/09 12:11:15;;;;;;;19.15;12.93;;;;;;;7.34;100.00;99789.36;1773653;79;21041;-43
2021/12/09 12:14:43;;;;;;;15.70;11.25;;;;;;;7.34;100.00;99795.86;1772204;79;21301;-44
2021/12/09 12:30:46;;;;;;;17.87;12.37;;;;;;;7.39;100.00;99809.77;1763763;79;21701;-37
2021/12/09 12:34:54;;;;;;;14.70;11.73;;;;;;;7.44;100.00;99811.97;1775347;79;20973;-37
2021/12/09 12:41:27;;;;;;;20.90;13.08;;;;;;;7.36;100.00;99822.75;1711637;81;21126;-44
2021/12/09 12:44:20;;;;;;;17.90;12.37;;;;;;;7.35;100.00;99834.03;1718270;81;21026;-45
2021/12/09 12:47:07;;;;;;;15.13;11.20;;;;;;;7.38;100.00;99827.56;1714495;81;21073;-45
2021/12/09 12:49:38;;;;;;;15.45;11.88;;;;;;;7.45;100.00;99830.19;1708810;81;21009;-39
2021/12/09 12:52:29;;;;;;;15.43;12.03;;;;;;;7.53;100.00;99831.52;1727275;81;21015;-40
2021/12/09 12:55:20;;;;;;;15.13;11.53;;;;;;;7.59;100.00;99835.45;1764808;79;21565;-37
2021/12/09 12:58:42;;;;;;;17.32;11.57;;;;;;;7.66;100.00;99842.89;1764713;79;21464;-48
2021/12/09 13:01:46;;;;;;;18.90;11.35;;;;;;;7.71;100.00;99846.36;1740275;80;21014;-37
2021/12/09 13:05:16;;;;;;;15.25;11.50;;;;;;;7.76;100.00;99840.74;1758679;79;21450;-38
2021/12/09 13:08:29;;;;;;;18.13;12.27;;;;;;;7.75;100.00;99850.72;1760676;79;20998;-38
2021/12/09 13:16:13;;;;;;;18.10;11.97;;;;;;;7.64;100.00;99858.48;1709363;81;21501;-37
2021/12/09 13:19:38;;;;;;;19.98;12.45;;;;;;;7.70;100.00;99865.02;1686970;83;21408;-37
2021/12/09 13:22:28;;;;;;;16.17;12.10;;;;;;;7.78;100.00;99870.28;1763138;79;21421;-37
2021/12/09 13:25:29;;;;;;;18.67;12.75;;;;;;;7.79;100.00;99872.45;1756406;79;21889;-45
2021/12/09 13:28:25;;;;;;;19.48;13.20;;;;;;;7.85;100.00;99881.16;1756969;79;20985;-38
2021/12/09 13:31:02;;;;;;;20.32;13.13;;;;;;;7.87;100.00;99883.77;1759791;79;21490;-36
2021/12/09 13:33:51;;;;;;;22.22;12.70;;;;;;;7.89;100.00;99889.88;1757382;79;21522;-37
2021/12/09 13:36:34;;;;;;;23.65;12.85;;;;;;;7.91;100.00;99892.04;1714174;81;21538;-37
2021/12/09 13:47:22;;;;;;;27.20;17.80;;;;;;;8.09;100.00;99900.36;1769425;79;21039;-37
2021/12/09 13:49:55;;;;;;;21.62;14.45;;;;;;;8.12;100.00;99901.25;1769616;79;20966;-43
2021/12/09 13:55:18;;;;;;;28.20;16.70;;;;;;;8.13;100.00;99906.90;1763441;79;21025;-44
2021/12/09 13:57:54;;;;;;;25.75;16.80;;;;;;;8.15;100.00;99912.11;1764695;79;21004;-44
2021/12/09 14:00:36;;;;;;;26.35;16.35;;;;;;;8.18;100.00;99916.05;1775938;78;21014;-44
2021/12/09 14:03:06;;;;;;;26.80;17.35;;;;;;;8.19;100.00;99918.64;1760826;79;21539;-37
2021/12/09 14:05:54;;;;;;;26.02;16.62;;;;;;;8.22;100.00;99916.47;1750810;79;21034;-36
2021/12/09 14:08:42;;;;;;;29.20;17.30;;;;;;;8.22;100.00;99919.08;1766809;79;20984;-37
2021/12/09 14:11:25;;;;;;;26.90;16.77;;;;;;;8.24;100.00;99922.58;1762411;81;21040;-37
2021/12/09 14:14:00;;;;;;;27.27;18.07;;;;;;;8.26;100.00;99924.75;1717931;83;21016;-37
2021/12/09 14:16:39;;;;;;;29.65;18.00;;;;;;;8.26;100.00;99920.40;1705410;84;21029;-37
2021/12/09 14:21:21;;;;;;;31.82;18.07;;;;;;;8.30;100.00;99917.82;1771348;79;21057;-37
2021/12/09 14:23:48;;;;;;;25.90;17.50;;;;;;;8.30;100.00;99921.30;1769338;79;21580;-37
2021/12/09 14:26:16;;;;;;;25.30;16.57;;;;;;;8.31;100.00;99920.86;1709051;83;21075;-37
2021/12/09 14:28:45;;;;;;;25.92;16.50;;;;;;;8.31;99.99;99930.85;1763658;81;21568;-43
2021/12/09 14:31:12;;;;;;;26.40;16.75;;;;;;;8.29;99.78;99933.86;1755988;79;21001;-37
2021/12/09 14:33:40;;;;;;;27.30;17.62;;;;;;;8.19;99.67;99937.33;1764160;79;21599;-37
2021/12/09 14:36:09;;;;;;;32.17;17.07;;;;;;;8.11;99.89;99939.00;1767458;79;21088;-37
2021/12/09 14:38:37;;;;;;;29.25;16.10;;;;;;;8.09;100.00;99936.41;1762029;79;21085;-36
2021/12/09 14:41:18;;;;;;;37.17;18.07;;;;;;;8.12;100.00;99935.56;1726915;81;21044;-36
2021/12/09 14:43:46;;;;;;;30.20;17.57;;;;;;;8.14;100.00;99945.55;1756238;81;21008;-37
2021/12/09 14:46:22;;;;;;;29.50;16.93;;;;;;;8.17;100.00;99939.90;1705263;81;21115;-36
2021/12/09 14:48:51;;;;;;;26.55;17.60;;;;;;;8.17;99.94;99942.50;1764362;81;21032;-36
2021/12/09 14:51:26;;;;;;;28.12;16.12;;;;;;;8.15;99.94;99942.08;1772458;80;21005;-44
